sensor_id;sensor_type;location;lat;lon;timestamp;temperature;humidity
60287;DHT22;46141;52.382;5.270;2023-02-28T00:01:13;19.70;59.30
60287;DHT22;46141;52.382;5.270;2023-02-28T00:03:38;19.70;59.30
60287;DHT22;46141;52.382;5.270;2023-02-28T00:06:06;19.70;59.30
60287;DHT22;46141;52.382;5.270;2023-02-28T00:08:32;19.60;59.40
60287;DHT22;46141;52.382;5.270;2023-02-28T00:11:02;19.60;59.40
60287;DHT22;46141;52.382;5.270;2023-02-28T00:13:28;19.60;59.40
60287;DHT22;46141;52.382;5.270;2023-02-28T00:16:05;19.60;59.40
60287;DHT22;46141;52.382;5.270;2023-02-28T00:18:31;19.60;59.40
60287;DHT22;46141;52.382;5.270;2023-02-28T00:20:57;19.60;59.50
60287;DHT22;46141;52.382;5.270;2023-02-28T00:23:24;19.50;59.50
60287;DHT22;46141;52.382;5.270;2023-02-28T00:25:50;19.50;59.50
60287;DHT22;46141;52.382;5.270;2023-02-28T00:28:16;19.50;59.50
60287;DHT22;46141;52.382;5.270;2023-02-28T00:30:42;19.50;59.40
60287;DHT22;46141;52.382;5.270;2023-02-28T00:33:08;19.50;59.40
60287;DHT22;46141;52.382;5.270;2023-02-28T00:35:34;19.40;59.40
60287;DHT22;46141;52.382;5.270;2023-02-28T00:37:59;19.40;59.50
60287;DHT22;46141;52.382;5.270;2023-02-28T00:40:25;19.40;59.70
60287;DHT22;46141;52.382;5.270;2023-02-28T00:42:51;19.40;59.60
60287;DHT22;46141;52.382;5.270;2023-02-28T00:45:16;19.40;59.60
60287;DHT22;46141;52.382;5.270;2023-02-28T00:47:42;19.40;59.60
60287;DHT22;46141;52.382;5.270;2023-02-28T00:50:09;19.40;59.60
60287;DHT22;46141;52.382;5.270;2023-02-28T00:52:34;19.30;59.60
60287;DHT22;46141;52.382;5.270;2023-02-28T00:55:00;19.30;59.70
60287;DHT22;46141;52.382;5.270;2023-02-28T00:57:26;19.30;59.70
60287;DHT22;46141;52.382;5.270;2023-02-28T00:59:52;19.30;59.70
60287;DHT22;46141;52.382;5.270;2023-02-28T01:02:20;19.30;59.70
60287;DHT22;46141;52.382;5.270;2023-02-28T01:04:46;19.30;59.80
60287;DHT22;46141;52.382;5.270;2023-02-28T01:07:12;19.30;59.80
60287;DHT22;46141;52.382;5.270;2023-02-28T01:09:40;19.20;59.80
60287;DHT22;46141;52.382;5.270;2023-02-28T01:12:07;19.20;59.70
60287;DHT22;46141;52.382;5.270;2023-02-28T01:14:33;19.20;59.80
60287;DHT22;46141;52.382;5.270;2023-02-28T01:16:58;19.20;59.80
60287;DHT22;46141;52.382;5.270;2023-02-28T01:19:24;19.20;59.80
60287;DHT22;46141;52.382;5.270;2023-02-28T01:21:49;19.10;60.00
60287;DHT22;46141;52.382;5.270;2023-02-28T01:24:15;19.10;60.00
60287;DHT22;46141;52.382;5.270;2023-02-28T01:26:41;19.10;60.00
60287;DHT22;46141;52.382;5.270;2023-02-28T01:29:06;19.10;60.00
60287;DHT22;46141;52.382;5.270;2023-02-28T01:31:32;19.10;60.10
60287;DHT22;46141;52.382;5.270;2023-02-28T01:33:58;19.10;60.30
60287;DHT22;46141;52.382;5.270;2023-02-28T01:36:24;19.00;60.20
60287;DHT22;46141;52.382;5.270;2023-02-28T01:38:51;19.00;60.20
60287;DHT22;46141;52.382;5.270;2023-02-28T01:41:23;19.00;60.10
60287;DHT22;46141;52.382;5.270;2023-02-28T01:46:15;19.00;60.10
60287;DHT22;46141;52.382;5.270;2023-02-28T01:49:02;19.00;60.20
60287;DHT22;46141;52.382;5.270;2023-02-28T01:54:03;18.90;60.30
60287;DHT22;46141;52.382;5.270;2023-02-28T01:56:34;18.90;60.30
60287;DHT22;46141;52.382;5.270;2023-02-28T01:59:01;18.90;60.20
60287;DHT22;46141;52.382;5.270;2023-02-28T02:01:27;18.90;60.10
60287;DHT22;46141;52.382;5.270;2023-02-28T02:03:59;18.90;60.20
60287;DHT22;46141;52.382;5.270;2023-02-28T02:06:38;18.90;60.20
60287;DHT22;46141;52.382;5.270;2023-02-28T02:09:05;18.90;60.30
60287;DHT22;46141;52.382;5.270;2023-02-28T02:11:34;18.90;60.20
60287;DHT22;46141;52.382;5.270;2023-02-28T02:14:25;18.80;60.20
60287;DHT22;46141;52.382;5.270;2023-02-28T02:17:05;18.80;60.20
60287;DHT22;46141;52.382;5.270;2023-02-28T02:25:29;18.80;60.20
60287;DHT22;46141;52.382;5.270;2023-02-28T02:31:51;18.70;60.20
60287;DHT22;46141;52.382;5.270;2023-02-28T02:34:28;18.70;60.20
60287;DHT22;46141;52.382;5.270;2023-02-28T02:37:10;18.70;60.30
60287;DHT22;46141;52.382;5.270;2023-02-28T02:39:48;18.70;60.30
60287;DHT22;46141;52.382;5.270;2023-02-28T02:42:27;18.70;60.30
60287;DHT22;46141;52.382;5.270;2023-02-28T02:45:07;18.70;60.30
60287;DHT22;46141;52.382;5.270;2023-02-28T02:47:36;18.70;60.20
60287;DHT22;46141;52.382;5.270;2023-02-28T02:50:08;18.60;60.10
60287;DHT22;46141;52.382;5.270;2023-02-28T02:52:46;18.60;60.20
60287;DHT22;46141;52.382;5.270;2023-02-28T02:55:15;18.60;60.10
60287;DHT22;46141;52.382;5.270;2023-02-28T02:58:01;18.60;60.20
60287;DHT22;46141;52.382;5.270;2023-02-28T03:00:37;18.60;60.20
60287;DHT22;46141;52.382;5.270;2023-02-28T03:03:07;18.60;60.10
60287;DHT22;46141;52.382;5.270;2023-02-28T03:05:46;18.60;60.10
60287;DHT22;46141;52.382;5.270;2023-02-28T03:08:12;18.50;60.10
60287;DHT22;46141;52.382;5.270;2023-02-28T03:10:40;18.50;60.10
60287;DHT22;46141;52.382;5.270;2023-02-28T03:15:58;18.50;60.20
60287;DHT22;46141;52.382;5.270;2023-02-28T03:18:36;18.40;60.10
60287;DHT22;46141;52.382;5.270;2023-02-28T03:21:23;18.40;60.00
60287;DHT22;46141;52.382;5.270;2023-02-28T03:24:03;18.40;60.10
60287;DHT22;46141;52.382;5.270;2023-02-28T03:26:29;18.40;60.10
60287;DHT22;46141;52.382;5.270;2023-02-28T03:29:08;18.40;60.10
60287;DHT22;46141;52.382;5.270;2023-02-28T03:31:50;18.40;60.10
60287;DHT22;46141;52.382;5.270;2023-02-28T03:34:24;18.30;60.10
60287;DHT22;46141;52.382;5.270;2023-02-28T03:36:57;18.30;60.10
60287;DHT22;46141;52.382;5.270;2023-02-28T03:39:39;18.30;60.10
60287;DHT22;46141;52.382;5.270;2023-02-28T03:42:23;18.30;60.10
60287;DHT22;46141;52.382;5.270;2023-02-28T03:44:58;18.30;60.00
60287;DHT22;46141;52.382;5.270;2023-02-28T03:47:39;18.30;60.10
60287;DHT22;46141;52.382;5.270;2023-02-28T03:50:19;18.30;60.10
60287;DHT22;46141;52.382;5.270;2023-02-28T03:55:46;18.20;60.00
60287;DHT22;46141;52.382;5.270;2023-02-28T03:58:22;18.20;60.00
60287;DHT22;46141;52.382;5.270;2023-02-28T04:00:57;18.20;60.00
60287;DHT22;46141;52.382;5.270;2023-02-28T04:03:24;18.20;60.00
60287;DHT22;46141;52.382;5.270;2023-02-28T04:05:55;18.20;60.00
60287;DHT22;46141;52.382;5.270;2023-02-28T04:08:22;18.20;60.00
60287;DHT22;46141;52.382;5.270;2023-02-28T04:11:01;18.10;60.00
60287;DHT22;46141;52.382;5.270;2023-02-28T04:13:28;18.10;60.00
60287;DHT22;46141;52.382;5.270;2023-02-28T04:15:53;18.10;60.00
60287;DHT22;46141;52.382;5.270;2023-02-28T04:18:19;18.10;60.00
60287;DHT22;46141;52.382;5.270;2023-02-28T04:20:44;18.10;60.10
60287;DHT22;46141;52.382;5.270;2023-02-28T04:23:10;18.10;60.00
60287;DHT22;46141;52.382;5.270;2023-02-28T04:25:36;18.10;60.10
60287;DHT22;46141;52.382;5.270;2023-02-28T04:28:01;18.10;60.10
60287;DHT22;46141;52.382;5.270;2023-02-28T04:30:27;18.00;60.10
60287;DHT22;46141;52.382;5.270;2023-02-28T04:32:52;18.00;60.10
60287;DHT22;46141;52.382;5.270;2023-02-28T04:35:18;18.00;60.00
60287;DHT22;46141;52.382;5.270;2023-02-28T04:37:44;18.00;60.10
60287;DHT22;46141;52.382;5.270;2023-02-28T04:40:10;18.00;60.00
60287;DHT22;46141;52.382;5.270;2023-02-28T04:42:36;18.00;60.00
60287;DHT22;46141;52.382;5.270;2023-02-28T04:45:03;17.90;60.00
60287;DHT22;46141;52.382;5.270;2023-02-28T04:47:28;17.90;60.00
60287;DHT22;46141;52.382;5.270;2023-02-28T04:49:54;17.90;60.00
60287;DHT22;46141;52.382;5.270;2023-02-28T04:52:20;17.90;60.10
60287;DHT22;46141;52.382;5.270;2023-02-28T04:54:46;17.90;60.00
60287;DHT22;46141;52.382;5.270;2023-02-28T04:57:11;17.90;60.00
60287;DHT22;46141;52.382;5.270;2023-02-28T04:59:37;17.90;60.00
60287;DHT22;46141;52.382;5.270;2023-02-28T05:02:02;17.90;59.90
60287;DHT22;46141;52.382;5.270;2023-02-28T05:04:33;17.90;59.80
60287;DHT22;46141;52.382;5.270;2023-02-28T05:07:00;17.90;59.80
60287;DHT22;46141;52.382;5.270;2023-02-28T05:09:26;17.90;59.90
60287;DHT22;46141;52.382;5.270;2023-02-28T05:11:52;17.90;59.90
60287;DHT22;46141;52.382;5.270;2023-02-28T05:14:18;17.80;59.90
60287;DHT22;46141;52.382;5.270;2023-02-28T05:16:44;17.80;59.90
60287;DHT22;46141;52.382;5.270;2023-02-28T05:19:10;17.80;60.00
60287;DHT22;46141;52.382;5.270;2023-02-28T05:21:48;17.80;60.00
60287;DHT22;46141;52.382;5.270;2023-02-28T05:24:14;17.80;59.90
60287;DHT22;46141;52.382;5.270;2023-02-28T05:26:42;17.80;59.80
60287;DHT22;46141;52.382;5.270;2023-02-28T05:29:08;17.80;59.80
60287;DHT22;46141;52.382;5.270;2023-02-28T05:31:34;17.80;59.90
60287;DHT22;46141;52.382;5.270;2023-02-28T05:34:01;17.80;59.90
60287;DHT22;46141;52.382;5.270;2023-02-28T05:36:26;17.70;59.90
60287;DHT22;46141;52.382;5.270;2023-02-28T05:38:52;17.70;59.90
60287;DHT22;46141;52.382;5.270;2023-02-28T05:41:19;17.70;60.00
60287;DHT22;46141;52.382;5.270;2023-02-28T05:43:46;17.70;60.00
60287;DHT22;46141;52.382;5.270;2023-02-28T05:46:14;17.70;59.90
60287;DHT22;46141;52.382;5.270;2023-02-28T05:48:42;17.70;59.90
60287;DHT22;46141;52.382;5.270;2023-02-28T05:51:08;17.70;59.90
60287;DHT22;46141;52.382;5.270;2023-02-28T05:53:34;17.70;59.90
60287;DHT22;46141;52.382;5.270;2023-02-28T05:56:00;17.70;59.90
60287;DHT22;46141;52.382;5.270;2023-02-28T05:58:26;17.70;59.90
60287;DHT22;46141;52.382;5.270;2023-02-28T06:00:56;17.60;59.90
60287;DHT22;46141;52.382;5.270;2023-02-28T06:03:22;17.60;59.90
60287;DHT22;46141;52.382;5.270;2023-02-28T06:05:48;17.60;59.90
60287;DHT22;46141;52.382;5.270;2023-02-28T06:08:13;17.60;59.90
60287;DHT22;46141;52.382;5.270;2023-02-28T06:10:39;17.60;60.50
60287;DHT22;46141;52.382;5.270;2023-02-28T06:13:05;17.60;59.90
60287;DHT22;46141;52.382;5.270;2023-02-28T06:15:32;17.60;59.90
60287;DHT22;46141;52.382;5.270;2023-02-28T06:17:58;17.60;59.90
60287;DHT22;46141;52.382;5.270;2023-02-28T06:20:26;17.60;59.90
60287;DHT22;46141;52.382;5.270;2023-02-28T06:22:57;17.60;59.80
60287;DHT22;46141;52.382;5.270;2023-02-28T06:25:27;17.60;59.80
60287;DHT22;46141;52.382;5.270;2023-02-28T06:27:54;17.60;59.80
60287;DHT22;46141;52.382;5.270;2023-02-28T06:30:20;17.60;59.80
60287;DHT22;46141;52.382;5.270;2023-02-28T06:32:49;17.60;59.80
60287;DHT22;46141;52.382;5.270;2023-02-28T06:35:15;17.60;59.80
60287;DHT22;46141;52.382;5.270;2023-02-28T06:37:41;17.50;59.70
60287;DHT22;46141;52.382;5.270;2023-02-28T06:40:10;17.50;59.70
60287;DHT22;46141;52.382;5.270;2023-02-28T06:42:35;17.60;59.70
60287;DHT22;46141;52.382;5.270;2023-02-28T06:45:02;17.50;59.70
60287;DHT22;46141;52.382;5.270;2023-02-28T06:47:35;17.50;59.50
60287;DHT22;46141;52.382;5.270;2023-02-28T06:50:01;17.50;59.90
60287;DHT22;46141;52.382;5.270;2023-02-28T06:52:27;17.50;59.60
60287;DHT22;46141;52.382;5.270;2023-02-28T06:54:52;17.50;59.80
60287;DHT22;46141;52.382;5.270;2023-02-28T06:57:28;17.50;60.00
60287;DHT22;46141;52.382;5.270;2023-02-28T06:59:57;17.50;60.00
60287;DHT22;46141;52.382;5.270;2023-02-28T07:02:23;17.50;60.10
60287;DHT22;46141;52.382;5.270;2023-02-28T07:04:48;17.50;60.10
60287;DHT22;46141;52.382;5.270;2023-02-28T07:07:14;17.50;60.10
60287;DHT22;46141;52.382;5.270;2023-02-28T07:09:40;17.60;59.70
60287;DHT22;46141;52.382;5.270;2023-02-28T07:12:05;17.50;58.70
60287;DHT22;46141;52.382;5.270;2023-02-28T07:14:31;17.50;58.10
60287;DHT22;46141;52.382;5.270;2023-02-28T07:16:57;17.50;58.70
60287;DHT22;46141;52.382;5.270;2023-02-28T07:19:22;17.50;59.20
60287;DHT22;46141;52.382;5.270;2023-02-28T07:21:48;17.50;59.40
60287;DHT22;46141;52.382;5.270;2023-02-28T07:24:14;17.50;59.70
60287;DHT22;46141;52.382;5.270;2023-02-28T07:26:41;17.50;59.70
60287;DHT22;46141;52.382;5.270;2023-02-28T07:29:07;17.50;59.70
60287;DHT22;46141;52.382;5.270;2023-02-28T07:31:33;17.50;59.60
60287;DHT22;46141;52.382;5.270;2023-02-28T07:33:58;17.50;59.60
60287;DHT22;46141;52.382;5.270;2023-02-28T07:36:24;17.50;59.60
60287;DHT22;46141;52.382;5.270;2023-02-28T07:38:50;17.50;59.60
60287;DHT22;46141;52.382;5.270;2023-02-28T07:41:17;17.50;59.50
60287;DHT22;46141;52.382;5.270;2023-02-28T07:43:44;17.50;59.60
60287;DHT22;46141;52.382;5.270;2023-02-28T07:46:12;17.50;59.60
60287;DHT22;46141;52.382;5.270;2023-02-28T07:48:40;17.50;59.50
60287;DHT22;46141;52.382;5.270;2023-02-28T07:51:06;17.50;59.50
60287;DHT22;46141;52.382;5.270;2023-02-28T07:53:33;17.50;59.60
60287;DHT22;46141;52.382;5.270;2023-02-28T07:56:00;17.50;59.80
60287;DHT22;46141;52.382;5.270;2023-02-28T07:58:28;17.50;59.80
60287;DHT22;46141;52.382;5.270;2023-02-28T08:00:54;17.50;59.80
60287;DHT22;46141;52.382;5.270;2023-02-28T08:03:21;17.50;59.60
60287;DHT22;46141;52.382;5.270;2023-02-28T08:05:47;17.50;59.70
60287;DHT22;46141;52.382;5.270;2023-02-28T08:08:14;17.50;59.90
60287;DHT22;46141;52.382;5.270;2023-02-28T08:10:40;17.50;60.00
60287;DHT22;46141;52.382;5.270;2023-02-28T08:13:06;17.50;60.00
60287;DHT22;46141;52.382;5.270;2023-02-28T08:15:32;17.50;60.00
60287;DHT22;46141;52.382;5.270;2023-02-28T08:17:58;17.50;60.00
60287;DHT22;46141;52.382;5.270;2023-02-28T08:20:26;17.50;60.00
60287;DHT22;46141;52.382;5.270;2023-02-28T08:22:51;17.50;60.00
60287;DHT22;46141;52.382;5.270;2023-02-28T08:25:18;17.50;60.00
60287;DHT22;46141;52.382;5.270;2023-02-28T08:27:44;17.50;60.00
60287;DHT22;46141;52.382;5.270;2023-02-28T08:30:11;17.50;59.90
60287;DHT22;46141;52.382;5.270;2023-02-28T08:32:37;17.60;60.00
60287;DHT22;46141;52.382;5.270;2023-02-28T08:35:04;17.60;59.90
60287;DHT22;46141;52.382;5.270;2023-02-28T08:37:30;17.60;59.90
60287;DHT22;46141;52.382;5.270;2023-02-28T08:39:56;17.50;59.80
60287;DHT22;46141;52.382;5.270;2023-02-28T08:42:22;17.60;59.90
60287;DHT22;46141;52.382;5.270;2023-02-28T08:44:48;17.60;59.90
60287;DHT22;46141;52.382;5.270;2023-02-28T08:47:13;17.60;59.90
60287;DHT22;46141;52.382;5.270;2023-02-28T08:49:39;17.60;59.80
60287;DHT22;46141;52.382;5.270;2023-02-28T08:52:05;17.60;59.80
60287;DHT22;46141;52.382;5.270;2023-02-28T08:54:31;17.60;59.80
60287;DHT22;46141;52.382;5.270;2023-02-28T08:56:58;17.60;59.80
60287;DHT22;46141;52.382;5.270;2023-02-28T08:59:24;17.60;59.80
60287;DHT22;46141;52.382;5.270;2023-02-28T09:01:49;17.50;59.80
60287;DHT22;46141;52.382;5.270;2023-02-28T09:04:15;17.50;59.80
60287;DHT22;46141;52.382;5.270;2023-02-28T09:06:40;17.60;59.80
60287;DHT22;46141;52.382;5.270;2023-02-28T09:09:06;17.60;59.80
60287;DHT22;46141;52.382;5.270;2023-02-28T09:11:35;17.60;59.80
60287;DHT22;46141;52.382;5.270;2023-02-28T09:14:02;17.60;59.70
60287;DHT22;46141;52.382;5.270;2023-02-28T09:16:34;17.60;59.70
60287;DHT22;46141;52.382;5.270;2023-02-28T09:19:00;17.60;59.70
60287;DHT22;46141;52.382;5.270;2023-02-28T09:21:27;17.60;59.70
60287;DHT22;46141;52.382;5.270;2023-02-28T09:23:53;17.70;59.70
60287;DHT22;46141;52.382;5.270;2023-02-28T09:26:25;17.70;59.70
60287;DHT22;46141;52.382;5.270;2023-02-28T09:28:52;17.70;59.80
60287;DHT22;46141;52.382;5.270;2023-02-28T09:31:21;17.70;59.70
60287;DHT22;46141;52.382;5.270;2023-02-28T09:33:48;17.70;59.70
60287;DHT22;46141;52.382;5.270;2023-02-28T09:36:14;17.70;59.70
60287;DHT22;46141;52.382;5.270;2023-02-28T09:38:40;17.70;59.70
60287;DHT22;46141;52.382;5.270;2023-02-28T09:43:49;17.70;59.70
60287;DHT22;46141;52.382;5.270;2023-02-28T09:48:53;17.70;59.70
60287;DHT22;46141;52.382;5.270;2023-02-28T09:51:46;17.70;59.70
60287;DHT22;46141;52.382;5.270;2023-02-28T09:54:20;17.70;59.60
60287;DHT22;46141;52.382;5.270;2023-02-28T10:04:59;17.70;59.60
60287;DHT22;46141;52.382;5.270;2023-02-28T10:08:18;17.70;60.30
60287;DHT22;46141;52.382;5.270;2023-02-28T10:10:31;17.70;59.60
60287;DHT22;46141;52.382;5.270;2023-02-28T10:13:02;17.70;59.70
60287;DHT22;46141;52.382;5.270;2023-02-28T10:15:32;17.70;59.60
60287;DHT22;46141;52.382;5.270;2023-02-28T10:18:18;17.70;59.60
60287;DHT22;46141;52.382;5.270;2023-02-28T10:20:49;17.70;59.60
60287;DHT22;46141;52.382;5.270;2023-02-28T10:23:26;17.80;59.70
60287;DHT22;46141;52.382;5.270;2023-02-28T10:26:12;17.70;59.60
60287;DHT22;46141;52.382;5.270;2023-02-28T10:28:39;17.80;59.70
60287;DHT22;46141;52.382;5.270;2023-02-28T10:31:15;17.80;59.60
60287;DHT22;46141;52.382;5.270;2023-02-28T10:33:43;17.80;59.70
60287;DHT22;46141;52.382;5.270;2023-02-28T10:36:15;17.80;59.60
60287;DHT22;46141;52.382;5.270;2023-02-28T10:38:44;17.80;59.60
60287;DHT22;46141;52.382;5.270;2023-02-28T10:41:13;17.80;59.60
60287;DHT22;46141;52.382;5.270;2023-02-28T10:43:41;17.80;59.60
60287;DHT22;46141;52.382;5.270;2023-02-28T10:46:15;17.80;59.60
60287;DHT22;46141;52.382;5.270;2023-02-28T10:49:19;17.80;59.70
60287;DHT22;46141;52.382;5.270;2023-02-28T10:51:58;17.80;59.70
60287;DHT22;46141;52.382;5.270;2023-02-28T10:57:18;17.90;59.60
60287;DHT22;46141;52.382;5.270;2023-02-28T10:59:44;17.90;59.70
60287;DHT22;46141;52.382;5.270;2023-02-28T11:02:29;17.90;59.60
60287;DHT22;46141;52.382;5.270;2023-02-28T11:04:55;17.90;59.50
60287;DHT22;46141;52.382;5.270;2023-02-28T11:07:23;17.90;59.70
60287;DHT22;46141;52.382;5.270;2023-02-28T11:09:58;17.90;59.60
60287;DHT22;46141;52.382;5.270;2023-02-28T11:12:32;17.90;59.60
60287;DHT22;46141;52.382;5.270;2023-02-28T11:18:29;17.90;59.60
60287;DHT22;46141;52.382;5.270;2023-02-28T11:20:51;18.00;59.60
60287;DHT22;46141;52.382;5.270;2023-02-28T11:23:20;18.00;59.70
60287;DHT22;46141;52.382;5.270;2023-02-28T11:25:51;18.00;59.80
60287;DHT22;46141;52.382;5.270;2023-02-28T11:28:34;18.00;59.70
60287;DHT22;46141;52.382;5.270;2023-02-28T11:33:44;17.90;60.10
60287;DHT22;46141;52.382;5.270;2023-02-28T11:38:43;17.90;61.20
60287;DHT22;46141;52.382;5.270;2023-02-28T11:49:29;18.10;60.70
60287;DHT22;46141;52.382;5.270;2023-02-28T12:03:45;18.30;60.40
60287;DHT22;46141;52.382;5.270;2023-02-28T12:22:46;18.80;60.40
60287;DHT22;46141;52.382;5.270;2023-02-28T12:25:55;18.80;60.30
60287;DHT22;46141;52.382;5.270;2023-02-28T12:28:17;18.90;60.40
60287;DHT22;46141;52.382;5.270;2023-02-28T12:31:01;18.90;60.30
60287;DHT22;46141;52.382;5.270;2023-02-28T12:33:36;19.00;60.20
60287;DHT22;46141;52.382;5.270;2023-02-28T12:36:12;19.10;60.30
60287;DHT22;46141;52.382;5.270;2023-02-28T12:38:53;19.20;60.20
60287;DHT22;46141;52.382;5.270;2023-02-28T12:41:41;19.30;60.10
60287;DHT22;46141;52.382;5.270;2023-02-28T12:44:56;19.30;60.10
60287;DHT22;46141;52.382;5.270;2023-02-28T12:47:19;19.40;60.10
60287;DHT22;46141;52.382;5.270;2023-02-28T12:50:13;19.50;60.20
60287;DHT22;46141;52.382;5.270;2023-02-28T13:01:02;19.70;59.90
60287;DHT22;46141;52.382;5.270;2023-02-28T13:09:15;19.90;59.70
60287;DHT22;46141;52.382;5.270;2023-02-28T13:11:52;20.00;59.70
60287;DHT22;46141;52.382;5.270;2023-02-28T13:22:49;20.20;59.50
60287;DHT22;46141;52.382;5.270;2023-02-28T13:27:52;20.30;59.30
60287;DHT22;46141;52.382;5.270;2023-02-28T13:33:36;20.50;59.20
60287;DHT22;46141;52.382;5.270;2023-02-28T13:38:39;20.60;59.20
60287;DHT22;46141;52.382;5.270;2023-02-28T13:44:23;20.70;58.90
60287;DHT22;46141;52.382;5.270;2023-02-28T13:49:25;20.80;59.20
60287;DHT22;46141;52.382;5.270;2023-02-28T13:57:35;21.00;59.20
60287;DHT22;46141;52.382;5.270;2023-02-28T14:03:13;21.00;59.10
60287;DHT22;46141;52.382;5.270;2023-02-28T14:05:41;21.00;59.10
60287;DHT22;46141;52.382;5.270;2023-02-28T14:08:21;21.10;59.00
60287;DHT22;46141;52.382;5.270;2023-02-28T14:10:51;21.10;59.60
60287;DHT22;46141;52.382;5.270;2023-02-28T14:16:06;21.20;58.90
60287;DHT22;46141;52.382;5.270;2023-02-28T14:18:41;21.20;59.00
60287;DHT22;46141;52.382;5.270;2023-02-28T14:21:21;21.30;59.00
60287;DHT22;46141;52.382;5.270;2023-02-28T14:34:54;21.40;58.90
60287;DHT22;46141;52.382;5.270;2023-02-28T14:37:32;21.50;58.80
60287;DHT22;46141;52.382;5.270;2023-02-28T14:40:00;21.50;58.80
60287;DHT22;46141;52.382;5.270;2023-02-28T14:44:55;21.60;58.70
60287;DHT22;46141;52.382;5.270;2023-02-28T14:47:30;21.70;58.70
60287;DHT22;46141;52.382;5.270;2023-02-28T14:49:58;21.70;58.70
60287;DHT22;46141;52.382;5.270;2023-02-28T14:52:27;21.70;59.00
60287;DHT22;46141;52.382;5.270;2023-02-28T14:55:05;21.70;59.10
60287;DHT22;46141;52.382;5.270;2023-02-28T14:57:41;21.70;58.90
60287;DHT22;46141;52.382;5.270;2023-02-28T15:00:15;21.80;57.90
60287;DHT22;46141;52.382;5.270;2023-02-28T15:02:43;21.80;57.30
60287;DHT22;46141;52.382;5.270;2023-02-28T15:07:44;21.90;58.90
60287;DHT22;46141;52.382;5.270;2023-02-28T15:13:10;21.90;58.10
60287;DHT22;46141;52.382;5.270;2023-02-28T15:15:44;22.00;58.10
60287;DHT22;46141;52.382;5.270;2023-02-28T15:20:57;22.10;57.80
60287;DHT22;46141;52.382;5.270;2023-02-28T15:23:24;22.10;57.60
60287;DHT22;46141;52.382;5.270;2023-02-28T15:25:52;22.20;57.70
60287;DHT22;46141;52.382;5.270;2023-02-28T15:28:21;22.20;57.60
60287;DHT22;46141;52.382;5.270;2023-02-28T15:31:00;22.30;57.40
60287;DHT22;46141;52.382;5.270;2023-02-28T15:33:32;22.30;57.30
60287;DHT22;46141;52.382;5.270;2023-02-28T15:36:31;22.30;57.20
60287;DHT22;46141;52.382;5.270;2023-02-28T15:39:00;22.40;57.20
60287;DHT22;46141;52.382;5.270;2023-02-28T15:41:29;22.40;56.70
60287;DHT22;46141;52.382;5.270;2023-02-28T15:46:54;22.60;56.60
60287;DHT22;46141;52.382;5.270;2023-02-28T15:49:22;22.60;56.40
60287;DHT22;46141;52.382;5.270;2023-02-28T15:51:51;22.60;56.30
60287;DHT22;46141;52.382;5.270;2023-02-28T15:54:24;22.60;56.40
60287;DHT22;46141;52.382;5.270;2023-02-28T15:56:55;22.50;56.30
60287;DHT22;46141;52.382;5.270;2023-02-28T15:59:29;22.50;56.40
60287;DHT22;46141;52.382;5.270;2023-02-28T16:02:32;22.40;56.50
60287;DHT22;46141;52.382;5.270;2023-02-28T16:07:26;22.20;56.70
60287;DHT22;46141;52.382;5.270;2023-02-28T16:09:52;22.20;56.80
60287;DHT22;46141;52.382;5.270;2023-02-28T16:12:21;22.10;56.80
60287;DHT22;46141;52.382;5.270;2023-02-28T16:14:52;22.00;56.90
60287;DHT22;46141;52.382;5.270;2023-02-28T16:17:26;22.00;57.00
60287;DHT22;46141;52.382;5.270;2023-02-28T16:19:54;21.90;57.00
60287;DHT22;46141;52.382;5.270;2023-02-28T16:22:20;21.80;57.10
60287;DHT22;46141;52.382;5.270;2023-02-28T16:24:46;21.80;57.20
60287;DHT22;46141;52.382;5.270;2023-02-28T16:27:35;21.70;57.10
60287;DHT22;46141;52.382;5.270;2023-02-28T16:30:03;21.70;57.10
60287;DHT22;46141;52.382;5.270;2023-02-28T16:32:33;21.60;57.40
60287;DHT22;46141;52.382;5.270;2023-02-28T16:35:00;21.60;57.50
60287;DHT22;46141;52.382;5.270;2023-02-28T16:37:27;21.50;57.40
60287;DHT22;46141;52.382;5.270;2023-02-28T16:39:53;21.50;57.60
60287;DHT22;46141;52.382;5.270;2023-02-28T16:42:25;21.50;57.60
60287;DHT22;46141;52.382;5.270;2023-02-28T16:44:53;21.40;57.80
60287;DHT22;46141;52.382;5.270;2023-02-28T16:47:19;21.40;57.60
60287;DHT22;46141;52.382;5.270;2023-02-28T16:49:45;21.30;57.70
60287;DHT22;46141;52.382;5.270;2023-02-28T16:52:13;21.30;58.20
60287;DHT22;46141;52.382;5.270;2023-02-28T16:54:40;21.20;57.70
60287;DHT22;46141;52.382;5.270;2023-02-28T16:57:22;21.20;57.60
60287;DHT22;46141;52.382;5.270;2023-02-28T16:59:49;21.20;57.70
60287;DHT22;46141;52.382;5.270;2023-02-28T17:02:18;21.10;57.60
60287;DHT22;46141;52.382;5.270;2023-02-28T17:04:46;21.10;57.90
60287;DHT22;46141;52.382;5.270;2023-02-28T17:07:14;21.10;57.70
60287;DHT22;46141;52.382;5.270;2023-02-28T17:09:43;21.00;54.60
60287;DHT22;46141;52.382;5.270;2023-02-28T17:12:09;21.00;55.80
60287;DHT22;46141;52.382;5.270;2023-02-28T17:14:37;20.90;56.60
60287;DHT22;46141;52.382;5.270;2023-02-28T17:17:05;20.80;56.40
60287;DHT22;46141;52.382;5.270;2023-02-28T17:19:31;20.80;56.30
60287;DHT22;46141;52.382;5.270;2023-02-28T17:21:57;20.80;56.80
60287;DHT22;46141;52.382;5.270;2023-02-28T17:24:22;20.80;55.70
60287;DHT22;46141;52.382;5.270;2023-02-28T17:26:48;20.80;56.30
60287;DHT22;46141;52.382;5.270;2023-02-28T17:29:20;20.80;57.60
60287;DHT22;46141;52.382;5.270;2023-02-28T17:31:47;20.80;58.30
60287;DHT22;46141;52.382;5.270;2023-02-28T17:34:13;20.80;58.60
60287;DHT22;46141;52.382;5.270;2023-02-28T17:36:48;20.80;59.00
60287;DHT22;46141;52.382;5.270;2023-02-28T17:39:15;20.80;59.40
60287;DHT22;46141;52.382;5.270;2023-02-28T17:41:45;20.80;59.70
60287;DHT22;46141;52.382;5.270;2023-02-28T17:44:11;20.80;59.80
60287;DHT22;46141;52.382;5.270;2023-02-28T17:46:36;20.80;59.90
60287;DHT22;46141;52.382;5.270;2023-02-28T17:49:02;20.80;60.10
60287;DHT22;46141;52.382;5.270;2023-02-28T17:51:28;20.80;60.20
60287;DHT22;46141;52.382;5.270;2023-02-28T17:53:54;20.80;60.30
60287;DHT22;46141;52.382;5.270;2023-02-28T17:56:22;20.80;60.20
60287;DHT22;46141;52.382;5.270;2023-02-28T17:58:49;20.80;60.20
60287;DHT22;46141;52.382;5.270;2023-02-28T18:01:16;20.80;60.60
60287;DHT22;46141;52.382;5.270;2023-02-28T18:03:42;20.80;60.50
60287;DHT22;46141;52.382;5.270;2023-02-28T18:08:53;20.70;59.30
60287;DHT22;46141;52.382;5.270;2023-02-28T18:11:20;20.70;60.60
60287;DHT22;46141;52.382;5.270;2023-02-28T18:13:52;20.70;61.00
60287;DHT22;46141;52.382;5.270;2023-02-28T18:16:19;20.70;61.10
60287;DHT22;46141;52.382;5.270;2023-02-28T18:18:46;20.70;61.20
60287;DHT22;46141;52.382;5.270;2023-02-28T18:21:14;20.70;61.30
60287;DHT22;46141;52.382;5.270;2023-02-28T18:23:40;20.70;61.20
60287;DHT22;46141;52.382;5.270;2023-02-28T18:26:18;20.60;61.10